sensor_id;sensor_type;location;lat;lon;timestamp;pressure;altitude;pressure_sealevel;temperature;humidity
80934;BME280;70392;51.144;17.050;2023-07-31T00:00:36;100032.70;;;17.16;84.97
80934;BME280;70392;51.144;17.050;2023-07-31T00:03:12;100033.58;;;17.04;83.92
80934;BME280;70392;51.144;17.050;2023-07-31T00:05:27;100036.30;;;17.08;84.20
80934;BME280;70392;51.144;17.050;2023-07-31T00:07:44;100040.55;;;17.10;84.36
80934;BME280;70392;51.144;17.050;2023-07-31T00:10:00;100034.45;;;17.09;84.31
80934;BME280;70392;51.144;17.050;2023-07-31T00:12:16;100036.02;;;17.10;84.16
80934;BME280;70392;51.144;17.050;2023-07-31T00:14:43;100040.08;;;16.97;83.78
80934;BME280;70392;51.144;17.050;2023-07-31T00:16:59;100036.89;;;17.05;84.85
80934;BME280;70392;51.144;17.050;2023-07-31T00:19:25;100039.53;;;17.03;84.08
80934;BME280;70392;51.144;17.050;2023-07-31T00:21:41;100037.05;;;17.07;83.96
80934;BME280;70392;51.144;17.050;2023-07-31T00:23:59;100041.84;;;17.09;84.02
80934;BME280;70392;51.144;17.050;2023-07-31T00:26:15;100037.39;;;17.11;84.64
80934;BME280;70392;51.144;17.050;2023-07-31T00:28:32;100036.83;;;17.16;84.75
80934;BME280;70392;51.144;17.050;2023-07-31T00:30:48;100041.29;;;17.00;83.76
80934;BME280;70392;51.144;17.050;2023-07-31T00:33:04;100039.49;;;16.95;84.14
80934;BME280;70392;51.144;17.050;2023-07-31T00:35:20;100030.20;;;16.99;nan
80934;BME280;70392;51.144;17.050;2023-07-31T00:37:39;100039.87;;;17.00;84.64
80934;BME280;70392;51.144;17.050;2023-07-31T00:39:55;100035.97;;;17.03;84.70
80934;BME280;70392;51.144;17.050;2023-07-31T00:42:19;100042.66;;;17.10;84.06
80934;BME280;70392;51.144;17.050;2023-07-31T00:44:35;100039.65;;;17.06;83.48
80934;BME280;70392;51.144;17.050;2023-07-31T00:46:59;100045.06;;;16.96;83.79
80934;BME280;70392;51.144;17.050;2023-07-31T00:49:16;100050.67;;;16.96;84.38
80934;BME280;70392;51.144;17.050;2023-07-31T00:51:32;100050.64;;;16.93;83.81
80934;BME280;70392;51.144;17.050;2023-07-31T00:53:49;100048.02;;;17.03;83.89
80934;BME280;70392;51.144;17.050;2023-07-31T00:56:06;100038.88;;;17.05;83.45
80934;BME280;70392;51.144;17.050;2023-07-31T00:58:22;100034.78;;;17.08;84.31
80934;BME280;70392;51.144;17.050;2023-07-31T01:00:42;100045.41;;;16.93;83.19
80934;BME280;70392;51.144;17.050;2023-07-31T01:02:58;100041.10;;;16.95;83.43
80934;BME280;70392;51.144;17.050;2023-07-31T01:05:14;100038.44;;;16.90;82.38
80934;BME280;70392;51.144;17.050;2023-07-31T01:08:29;100037.44;;;16.89;83.28
80934;BME280;70392;51.144;17.050;2023-07-31T01:10:56;100033.77;;;17.36;81.39
80934;BME280;70392;51.144;17.050;2023-07-31T01:13:19;100034.59;;;17.47;80.48
80934;BME280;70392;51.144;17.050;2023-07-31T01:15:37;100044.16;;;17.31;80.10
80934;BME280;70392;51.144;17.050;2023-07-31T01:18:03;100037.71;;;17.36;80.89
80934;BME280;70392;51.144;17.050;2023-07-31T01:20:24;100042.46;;;17.27;80.69
80934;BME280;70392;51.144;17.050;2023-07-31T01:28:04;100051.91;;;17.20;80.67
80934;BME280;70392;51.144;17.050;2023-07-31T01:30:26;100051.17;;;17.23;80.73
80934;BME280;70392;51.144;17.050;2023-07-31T01:32:53;100050.43;;;17.19;79.40
80934;BME280;70392;51.144;17.050;2023-07-31T01:35:13;100046.56;;;17.03;80.71
80934;BME280;70392;51.144;17.050;2023-07-31T01:37:32;100046.00;;;16.96;80.38
80934;BME280;70392;51.144;17.050;2023-07-31T01:39:49;100048.84;;;16.90;81.00
80934;BME280;70392;51.144;17.050;2023-07-31T01:42:09;100047.70;;;16.83;81.10
80934;BME280;70392;51.144;17.050;2023-07-31T01:44:31;100048.84;;;16.84;80.96
80934;BME280;70392;51.144;17.050;2023-07-31T01:46:51;100044.53;;;16.77;81.11
80934;BME280;70392;51.144;17.050;2023-07-31T01:49:07;100041.75;;;16.86;80.71
80934;BME280;70392;51.144;17.050;2023-07-31T01:51:29;100049.49;;;16.89;81.20
80934;BME280;70392;51.144;17.050;2023-07-31T01:53:50;100043.87;;;16.78;80.93
80934;BME280;70392;51.144;17.050;2023-07-31T01:56:06;100046.33;;;16.82;80.94
80934;BME280;70392;51.144;17.050;2023-07-31T01:58:24;100046.64;;;16.86;80.68
80934;BME280;70392;51.144;17.050;2023-07-31T02:00:40;100040.60;;;16.88;80.82
80934;BME280;70392;51.144;17.050;2023-07-31T02:03:00;100034.50;;;16.83;79.89
80934;BME280;70392;51.144;17.050;2023-07-31T02:05:16;100029.78;;;16.81;80.26
80934;BME280;70392;51.144;17.050;2023-07-31T02:07:33;100034.77;;;16.75;80.59
80934;BME280;70392;51.144;17.050;2023-07-31T02:09:49;100032.20;;;16.70;80.64
80934;BME280;70392;51.144;17.050;2023-07-31T02:12:17;100034.75;;;16.77;80.61
80934;BME280;70392;51.144;17.050;2023-07-31T02:14:33;100032.61;;;16.88;81.43
80934;BME280;70392;51.144;17.050;2023-07-31T02:17:23;100037.64;;;16.92;81.70
80934;BME280;70392;51.144;17.050;2023-07-31T02:19:48;100046.73;;;17.19;79.94
80934;BME280;70392;51.144;17.050;2023-07-31T02:22:09;100043.67;;;17.14;80.13
80934;BME280;70392;51.144;17.050;2023-07-31T02:24:25;100045.20;;;17.03;80.72
80934;BME280;70392;51.144;17.050;2023-07-31T02:27:27;100043.80;;;16.92;80.74
80934;BME280;70392;51.144;17.050;2023-07-31T02:29:44;100046.22;;;17.15;79.76
80934;BME280;70392;51.144;17.050;2023-07-31T02:32:00;100037.08;;;17.17;80.21
80934;BME280;70392;51.144;17.050;2023-07-31T02:34:16;100041.10;;;17.15;80.59
80934;BME280;70392;51.144;17.050;2023-07-31T02:36:33;100035.97;;;17.06;79.70
80934;BME280;70392;51.144;17.050;2023-07-31T02:38:51;100035.22;;;16.92;79.95
80934;BME280;70392;51.144;17.050;2023-07-31T02:41:09;100029.48;;;16.80;79.56
80934;BME280;70392;51.144;17.050;2023-07-31T02:43:26;100036.60;;;16.79;80.26
80934;BME280;70392;51.144;17.050;2023-07-31T02:46:02;100034.66;;;16.83;79.09
80934;BME280;70392;51.144;17.050;2023-07-31T02:48:19;100033.95;;;16.84;79.05
80934;BME280;70392;51.144;17.050;2023-07-31T02:50:42;100030.41;;;16.90;79.51
80934;BME280;70392;51.144;17.050;2023-07-31T02:52:59;100031.44;;;16.78;79.92
80934;BME280;70392;51.144;17.050;2023-07-31T02:55:15;100028.36;;;16.77;80.30
80934;BME280;70392;51.144;17.050;2023-07-31T02:57:32;100024.28;;;16.77;80.64
80934;BME280;70392;51.144;17.050;2023-07-31T02:59:48;100035.30;;;16.71;80.33
80934;BME280;70392;51.144;17.050;2023-07-31T03:02:04;100040.83;;;16.68;79.98
80934;BME280;70392;51.144;17.050;2023-07-31T03:04:20;100039.73;;;16.60;80.54
80934;BME280;70392;51.144;17.050;2023-07-31T03:06:37;100035.20;;;16.52;79.82
80934;BME280;70392;51.144;17.050;2023-07-31T03:08:56;100039.41;;;16.49;80.22
80934;BME280;70392;51.144;17.050;2023-07-31T03:11:12;100039.33;;;16.61;80.90
80934;BME280;70392;51.144;17.050;2023-07-31T03:13:28;100041.03;;;16.59;80.74
80934;BME280;70392;51.144;17.050;2023-07-31T03:15:48;100040.25;;;16.55;80.65
80934;BME280;70392;51.144;17.050;2023-07-31T03:18:04;100041.62;;;16.57;80.43
80934;BME280;70392;51.144;17.050;2023-07-31T03:20:21;100040.92;;;16.38;79.66
80934;BME280;70392;51.144;17.050;2023-07-31T03:22:39;100041.00;;;16.44;80.91
80934;BME280;70392;51.144;17.050;2023-07-31T03:24:55;100036.52;;;16.45;81.48
80934;BME280;70392;51.144;17.050;2023-07-31T03:27:11;100034.14;;;16.39;81.27
80934;BME280;70392;51.144;17.050;2023-07-31T03:29:28;100043.08;;;16.34;81.29
80934;BME280;70392;51.144;17.050;2023-07-31T03:31:51;100042.22;;;16.38;81.56
80934;BME280;70392;51.144;17.050;2023-07-31T03:34:07;100046.03;;;16.36;81.20
80934;BME280;70392;51.144;17.050;2023-07-31T03:36:32;100052.45;;;16.41;80.66
80934;BME280;70392;51.144;17.050;2023-07-31T03:38:48;100044.84;;;16.43;79.96
80934;BME280;70392;51.144;17.050;2023-07-31T03:41:06;100050.94;;;16.46;80.78
80934;BME280;70392;51.144;17.050;2023-07-31T03:43:22;100048.55;;;16.44;80.08
80934;BME280;70392;51.144;17.050;2023-07-31T03:45:41;100053.39;;;16.50;79.33
80934;BME280;70392;51.144;17.050;2023-07-31T03:47:57;100050.36;;;16.50;79.75
80934;BME280;70392;51.144;17.050;2023-07-31T03:50:16;100047.19;;;16.56;79.94
80934;BME280;70392;51.144;17.050;2023-07-31T03:52:42;100043.20;;;16.61;79.09
80934;BME280;70392;51.144;17.050;2023-07-31T03:55:00;100044.85;;;16.66;79.25
80934;BME280;70392;51.144;17.050;2023-07-31T03:57:16;100041.08;;;16.69;78.53
80934;BME280;70392;51.144;17.050;2023-07-31T04:00:08;100043.84;;;16.74;78.42
80934;BME280;70392;51.144;17.050;2023-07-31T04:02:25;100042.88;;;17.08;76.50
80934;BME280;70392;51.144;17.050;2023-07-31T04:04:43;100048.30;;;17.06;77.44
80934;BME280;70392;51.144;17.050;2023-07-31T04:07:06;100044.82;;;17.13;77.17
80934;BME280;70392;51.144;17.050;2023-07-31T04:09:22;100041.05;;;17.08;75.65
80934;BME280;70392;51.144;17.050;2023-07-31T04:11:41;100041.76;;;17.11;76.17
80934;BME280;70392;51.144;17.050;2023-07-31T04:13:57;100047.08;;;17.12;76.77
80934;BME280;70392;51.144;17.050;2023-07-31T04:16:14;100044.60;;;17.17;77.59
80934;BME280;70392;51.144;17.050;2023-07-31T04:18:32;100047.77;;;17.14;76.74
80934;BME280;70392;51.144;17.050;2023-07-31T04:20:48;100041.13;;;17.22;76.18
80934;BME280;70392;51.144;17.050;2023-07-31T04:23:04;100044.01;;;17.28;76.19
80934;BME280;70392;51.144;17.050;2023-07-31T04:25:20;100033.20;;;17.24;74.47
80934;BME280;70392;51.144;17.050;2023-07-31T04:27:37;100037.28;;;17.31;75.32
80934;BME280;70392;51.144;17.050;2023-07-31T04:29:53;100039.53;;;17.42;75.93
80934;BME280;70392;51.144;17.050;2023-07-31T04:32:10;100035.33;;;17.51;75.47
80934;BME280;70392;51.144;17.050;2023-07-31T04:34:27;100038.93;;;17.62;73.42
80934;BME280;70392;51.144;17.050;2023-07-31T04:36:44;100038.86;;;17.77;75.55
80934;BME280;70392;51.144;17.050;2023-07-31T04:39:03;100045.59;;;17.85;74.21
80934;BME280;70392;51.144;17.050;2023-07-31T04:41:21;100041.81;;;17.91;74.69
80934;BME280;70392;51.144;17.050;2023-07-31T04:43:39;100051.20;;;17.99;73.72
80934;BME280;70392;51.144;17.050;2023-07-31T04:45:56;100050.80;;;18.00;73.59
80934;BME280;70392;51.144;17.050;2023-07-31T04:48:12;100045.77;;;17.98;74.22
80934;BME280;70392;51.144;17.050;2023-07-31T04:50:28;100044.24;;;18.07;72.71
80934;BME280;70392;51.144;17.050;2023-07-31T04:52:46;100040.13;;;18.08;72.69
80934;BME280;70392;51.144;17.050;2023-07-31T04:55:05;100048.02;;;18.22;72.36
80934;BME280;70392;51.144;17.050;2023-07-31T04:57:24;100040.59;;;18.23;70.87
80934;BME280;70392;51.144;17.050;2023-07-31T04:59:40;100047.97;;;18.32;71.97
80934;BME280;70392;51.144;17.050;2023-07-31T05:01:56;100041.48;;;18.32;71.21
80934;BME280;70392;51.144;17.050;2023-07-31T05:04:15;100043.38;;;18.48;72.71
80934;BME280;70392;51.144;17.050;2023-07-31T05:06:31;100042.84;;;18.60;73.12
80934;BME280;70392;51.144;17.050;2023-07-31T05:08:47;100041.59;;;18.67;71.23
80934;BME280;70392;51.144;17.050;2023-07-31T05:11:03;100050.02;;;18.76;71.38
80934;BME280;70392;51.144;17.050;2023-07-31T05:13:21;100049.16;;;18.82;71.16
80934;BME280;70392;51.144;17.050;2023-07-31T05:15:38;100057.54;;;18.89;70.76
80934;BME280;70392;51.144;17.050;2023-07-31T05:17:54;100054.16;;;18.94;71.04
80934;BME280;70392;51.144;17.050;2023-07-31T05:20:15;100051.44;;;18.82;67.71
80934;BME280;70392;51.144;17.050;2023-07-31T05:22:31;100051.61;;;18.92;71.01
80934;BME280;70392;51.144;17.050;2023-07-31T05:24:48;100047.98;;;19.02;68.47
80934;BME280;70392;51.144;17.050;2023-07-31T05:27:06;100051.85;;;19.03;67.34
80934;BME280;70392;51.144;17.050;2023-07-31T05:29:22;100045.86;;;19.22;69.17
80934;BME280;70392;51.144;17.050;2023-07-31T05:31:41;100052.85;;;19.32;69.22
80934;BME280;70392;51.144;17.050;2023-07-31T05:34:00;100050.78;;;19.42;67.84
80934;BME280;70392;51.144;17.050;2023-07-31T05:36:17;100054.25;;;19.43;69.10
80934;BME280;70392;51.144;17.050;2023-07-31T05:38:53;100048.09;;;19.57;67.52
80934;BME280;70392;51.144;17.050;2023-07-31T05:41:12;100060.62;;;19.59;65.88
80934;BME280;70392;51.144;17.050;2023-07-31T05:43:29;100047.20;;;19.72;67.20
80934;BME280;70392;51.144;17.050;2023-07-31T05:45:51;100050.74;;;19.80;67.59
80934;BME280;70392;51.144;17.050;2023-07-31T05:48:07;100046.39;;;19.89;69.72
80934;BME280;70392;51.144;17.050;2023-07-31T05:50:30;100049.20;;;19.92;64.92
80934;BME280;70392;51.144;17.050;2023-07-31T05:52:45;100045.35;;;19.96;66.16
80934;BME280;70392;51.144;17.050;2023-07-31T05:55:03;100039.93;;;20.02;64.46
80934;BME280;70392;51.144;17.050;2023-07-31T05:57:22;100046.44;;;20.05;66.14
80934;BME280;70392;51.144;17.050;2023-07-31T05:59:38;100041.25;;;20.07;64.89
80934;BME280;70392;51.144;17.050;2023-07-31T06:01:54;100040.02;;;19.97;63.36
80934;BME280;70392;51.144;17.050;2023-07-31T06:04:11;100044.72;;;20.04;63.73
80934;BME280;70392;51.144;17.050;2023-07-31T06:06:29;100046.46;;;20.12;63.37
80934;BME280;70392;51.144;17.050;2023-07-31T06:09:03;100043.59;;;20.21;62.76
80934;BME280;70392;51.144;17.050;2023-07-31T06:11:20;100048.77;;;20.25;62.69
80934;BME280;70392;51.144;17.050;2023-07-31T06:13:39;100040.80;;;20.28;63.78
80934;BME280;70392;51.144;17.050;2023-07-31T06:15:55;100043.48;;;20.29;62.16
80934;BME280;70392;51.144;17.050;2023-07-31T06:18:12;100042.25;;;20.27;62.59
80934;BME280;70392;51.144;17.050;2023-07-31T06:20:28;100041.78;;;20.33;63.21
80934;BME280;70392;51.144;17.050;2023-07-31T06:22:50;100043.77;;;20.33;61.53
80934;BME280;70392;51.144;17.050;2023-07-31T06:25:07;100037.78;;;20.40;63.24
80934;BME280;70392;51.144;17.050;2023-07-31T06:27:31;100037.80;;;20.52;62.38
80934;BME280;70392;51.144;17.050;2023-07-31T06:29:48;100032.08;;;20.58;61.75
80934;BME280;70392;51.144;17.050;2023-07-31T06:32:04;100040.89;;;20.59;63.83
80934;BME280;70392;51.144;17.050;2023-07-31T06:34:20;100035.44;;;20.69;62.64
80934;BME280;70392;51.144;17.050;2023-07-31T06:36:39;100034.36;;;20.73;60.71
80934;BME280;70392;51.144;17.050;2023-07-31T06:38:54;100034.91;;;20.92;60.84
80934;BME280;70392;51.144;17.050;2023-07-31T06:41:13;100040.08;;;21.05;60.53
80934;BME280;70392;51.144;17.050;2023-07-31T06:43:29;100049.70;;;21.29;60.78
80934;BME280;70392;51.144;17.050;2023-07-31T06:45:47;100049.66;;;21.39;59.33
80934;BME280;70392;51.144;17.050;2023-07-31T06:48:06;100045.28;;;21.49;59.95
80934;BME280;70392;51.144;17.050;2023-07-31T06:50:23;100043.78;;;21.52;59.28
80934;BME280;70392;51.144;17.050;2023-07-31T06:52:39;100045.25;;;21.53;59.35
80934;BME280;70392;51.144;17.050;2023-07-31T06:55:03;100048.06;;;21.44;58.06
80934;BME280;70392;51.144;17.050;2023-07-31T06:57:31;100045.13;;;21.49;58.64
80934;BME280;70392;51.144;17.050;2023-07-31T06:59:49;100048.46;;;21.49;59.09
80934;BME280;70392;51.144;17.050;2023-07-31T07:02:06;100048.95;;;21.60;58.19
80934;BME280;70392;51.144;17.050;2023-07-31T07:04:22;100045.06;;;21.69;60.51
80934;BME280;70392;51.144;17.050;2023-07-31T07:06:38;100043.86;;;21.78;57.66
80934;BME280;70392;51.144;17.050;2023-07-31T07:09:03;100038.12;;;21.68;58.70
80934;BME280;70392;51.144;17.050;2023-07-31T07:11:20;100033.37;;;21.95;60.49
80934;BME280;70392;51.144;17.050;2023-07-31T07:13:36;100037.26;;;22.18;61.19
80934;BME280;70392;51.144;17.050;2023-07-31T07:15:53;100033.58;;;22.31;61.23
80934;BME280;70392;51.144;17.050;2023-07-31T07:18:29;100037.25;;;22.46;58.98
80934;BME280;70392;51.144;17.050;2023-07-31T07:20:50;100038.27;;;22.52;58.35
80934;BME280;70392;51.144;17.050;2023-07-31T07:23:08;100034.63;;;22.55;57.35
80934;BME280;70392;51.144;17.050;2023-07-31T07:25:25;100031.28;;;22.59;58.62
80934;BME280;70392;51.144;17.050;2023-07-31T07:27:44;100038.56;;;22.49;57.55
80934;BME280;70392;51.144;17.050;2023-07-31T07:30:01;100038.80;;;22.52;60.02
80934;BME280;70392;51.144;17.050;2023-07-31T07:32:18;100033.41;;;22.40;57.80
80934;BME280;70392;51.144;17.050;2023-07-31T07:34:34;100028.72;;;22.21;56.63
80934;BME280;70392;51.144;17.050;2023-07-31T07:36:50;100018.52;;;22.03;57.33
80934;BME280;70392;51.144;17.050;2023-07-31T07:39:06;100013.45;;;22.03;57.70
80934;BME280;70392;51.144;17.050;2023-07-31T07:41:23;100020.87;;;22.13;59.69
80934;BME280;70392;51.144;17.050;2023-07-31T07:43:39;100021.22;;;22.25;59.31
80934;BME280;70392;51.144;17.050;2023-07-31T07:45:57;100013.05;;;22.25;57.74
80934;BME280;70392;51.144;17.050;2023-07-31T07:48:17;100017.68;;;22.29;58.08
80934;BME280;70392;51.144;17.050;2023-07-31T07:50:34;100018.32;;;22.37;58.19
80934;BME280;70392;51.144;17.050;2023-07-31T07:52:50;100020.70;;;22.44;58.54
80934;BME280;70392;51.144;17.050;2023-07-31T07:55:07;100019.36;;;22.62;61.58
80934;BME280;70392;51.144;17.050;2023-07-31T07:57:24;100018.77;;;22.88;58.02
80934;BME280;70392;51.144;17.050;2023-07-31T07:59:41;100023.82;;;23.07;57.20
80934;BME280;70392;51.144;17.050;2023-07-31T08:01:57;100019.89;;;23.25;56.03
80934;BME280;70392;51.144;17.050;2023-07-31T08:04:23;100019.94;;;23.35;54.31
80934;BME280;70392;51.144;17.050;2023-07-31T08:06:40;100017.84;;;23.30;54.50
80934;BME280;70392;51.144;17.050;2023-07-31T08:08:58;100006.30;;;23.23;54.04
80934;BME280;70392;51.144;17.050;2023-07-31T08:11:23;100010.84;;;23.33;55.31
80934;BME280;70392;51.144;17.050;2023-07-31T08:13:40;100002.75;;;23.46;54.81
80934;BME280;70392;51.144;17.050;2023-07-31T08:15:59;100008.13;;;23.51;55.55
80934;BME280;70392;51.144;17.050;2023-07-31T08:18:17;100010.90;;;23.67;56.65
80934;BME280;70392;51.144;17.050;2023-07-31T08:20:33;100019.44;;;23.81;53.73
80934;BME280;70392;51.144;17.050;2023-07-31T08:22:53;100015.07;;;23.96;53.18
80934;BME280;70392;51.144;17.050;2023-07-31T08:25:09;100010.56;;;23.95;51.10
80934;BME280;70392;51.144;17.050;2023-07-31T08:27:34;100017.20;;;24.16;49.93
80934;BME280;70392;51.144;17.050;2023-07-31T08:29:52;100011.41;;;24.47;51.41
80934;BME280;70392;51.144;17.050;2023-07-31T08:32:10;100013.30;;;24.53;48.75
80934;BME280;70392;51.144;17.050;2023-07-31T08:34:30;100019.21;;;24.82;48.43
80934;BME280;70392;51.144;17.050;2023-07-31T08:36:47;100017.10;;;24.86;48.87
80934;BME280;70392;51.144;17.050;2023-07-31T08:39:04;100019.49;;;24.75;49.86
80934;BME280;70392;51.144;17.050;2023-07-31T08:41:27;100018.96;;;24.78;50.67
80934;BME280;70392;51.144;17.050;2023-07-31T08:43:47;100018.74;;;24.31;52.32
80934;BME280;70392;51.144;17.050;2023-07-31T08:46:05;100011.95;;;24.33;51.20
80934;BME280;70392;51.144;17.050;2023-07-31T08:48:22;100012.23;;;24.07;51.43
80934;BME280;70392;51.144;17.050;2023-07-31T08:50:39;100015.26;;;23.91;52.32
80934;BME280;70392;51.144;17.050;2023-07-31T08:52:58;100012.75;;;23.84;54.33
80934;BME280;70392;51.144;17.050;2023-07-31T08:55:16;100008.19;;;23.19;53.21
80934;BME280;70392;51.144;17.050;2023-07-31T08:57:35;100007.76;;;23.34;56.32
80934;BME280;70392;51.144;17.050;2023-07-31T08:59:53;100009.10;;;23.36;54.96
80934;BME280;70392;51.144;17.050;2023-07-31T09:02:17;100010.04;;;22.92;55.27
80934;BME280;70392;51.144;17.050;2023-07-31T09:04:35;100012.60;;;22.75;56.37
80934;BME280;70392;51.144;17.050;2023-07-31T09:06:57;100007.77;;;22.40;55.57
80934;BME280;70392;51.144;17.050;2023-07-31T09:09:20;100014.41;;;22.41;57.18
80934;BME280;70392;51.144;17.050;2023-07-31T09:11:38;100011.65;;;22.36;55.28
80934;BME280;70392;51.144;17.050;2023-07-31T09:13:57;100016.05;;;22.37;56.19
80934;BME280;70392;51.144;17.050;2023-07-31T09:16:28;100007.55;;;22.49;55.39
80934;BME280;70392;51.144;17.050;2023-07-31T09:18:54;100007.38;;;22.59;53.63
80934;BME280;70392;51.144;17.050;2023-07-31T09:21:15;100004.09;;;22.77;54.17
80934;BME280;70392;51.144;17.050;2023-07-31T09:25:57;100032.54;;;22.87;52.61
80934;BME280;70392;51.144;17.050;2023-07-31T09:28:16;100032.33;;;22.62;53.49
80934;BME280;70392;51.144;17.050;2023-07-31T09:33:08;100038.75;;;22.36;53.93
80934;BME280;70392;51.144;17.050;2023-07-31T09:35:32;100030.83;;;22.26;54.14
80934;BME280;70392;51.144;17.050;2023-07-31T09:37:52;100025.81;;;22.13;53.44
80934;BME280;70392;51.144;17.050;2023-07-31T09:42:52;100032.66;;;22.05;55.03
80934;BME280;70392;51.144;17.050;2023-07-31T09:45:10;100029.00;;;21.90;55.50
80934;BME280;70392;51.144;17.050;2023-07-31T09:47:27;100033.39;;;21.89;55.10
80934;BME280;70392;51.144;17.050;2023-07-31T09:49:52;100036.42;;;22.03;54.47
80934;BME280;70392;51.144;17.050;2023-07-31T09:52:16;100037.65;;;21.86;53.72
80934;BME280;70392;51.144;17.050;2023-07-31T09:54:35;100032.05;;;21.86;55.31
80934;BME280;70392;51.144;17.050;2023-07-31T09:56:52;100024.01;;;21.97;55.13
80934;BME280;70392;51.144;17.050;2023-07-31T09:59:20;100020.66;;;22.05;54.39
80934;BME280;70392;51.144;17.050;2023-07-31T10:01:51;100021.66;;;22.38;53.69
80934;BME280;70392;51.144;17.050;2023-07-31T10:04:10;100023.89;;;22.27;52.84
80934;BME280;70392;51.144;17.050;2023-07-31T10:06:30;100021.83;;;22.14;53.93
80934;BME280;70392;51.144;17.050;2023-07-31T10:08:48;100016.27;;;22.04;53.65
80934;BME280;70392;51.144;17.050;2023-07-31T10:11:10;100008.98;;;21.91;54.01
80934;BME280;70392;51.144;17.050;2023-07-31T10:13:28;100006.85;;;21.79;54.96
80934;BME280;70392;51.144;17.050;2023-07-31T10:15:46;100011.07;;;21.77;56.06
80934;BME280;70392;51.144;17.050;2023-07-31T10:18:06;100003.45;;;21.69;56.89
80934;BME280;70392;51.144;17.050;2023-07-31T10:20:23;100006.16;;;21.63;56.59
80934;BME280;70392;51.144;17.050;2023-07-31T10:22:41;99998.70;;;21.88;57.92
80934;BME280;70392;51.144;17.050;2023-07-31T10:25:01;100003.01;;;21.81;56.44
80934;BME280;70392;51.144;17.050;2023-07-31T10:27:18;100008.63;;;22.05;55.65
80934;BME280;70392;51.144;17.050;2023-07-31T10:29:42;100014.51;;;22.30;55.73
80934;BME280;70392;51.144;17.050;2023-07-31T10:31:59;100010.84;;;21.89;54.59
80934;BME280;70392;51.144;17.050;2023-07-31T10:34:17;100014.51;;;22.25;53.90
80934;BME280;70392;51.144;17.050;2023-07-31T10:36:34;100013.85;;;22.62;52.60
80934;BME280;70392;51.144;17.050;2023-07-31T10:38:52;100009.78;;;23.06;53.62
80934;BME280;70392;51.144;17.050;2023-07-31T10:41:10;100005.29;;;23.14;52.46
80934;BME280;70392;51.144;17.050;2023-07-31T10:43:37;100008.37;;;23.41;52.66
80934;BME280;70392;51.144;17.050;2023-07-31T10:45:53;100003.30;;;23.35;51.67
80934;BME280;70392;51.144;17.050;2023-07-31T10:48:15;100004.61;;;22.85;52.00
80934;BME280;70392;51.144;17.050;2023-07-31T10:50:56;99999.87;;;22.57;52.07
80934;BME280;70392;51.144;17.050;2023-07-31T10:53:26;99998.55;;;22.24;53.28
80934;BME280;70392;51.144;17.050;2023-07-31T10:55:51;99991.32;;;22.00;55.29
80934;BME280;70392;51.144;17.050;2023-07-31T10:58:30;99991.49;;;22.50;54.77
80934;BME280;70392;51.144;17.050;2023-07-31T11:01:11;99999.02;;;22.68;53.71
80934;BME280;70392;51.144;17.050;2023-07-31T11:03:56;99984.38;;;22.59;53.42
80934;BME280;70392;51.144;17.050;2023-07-31T11:06:21;99994.79;;;22.65;52.91
80934;BME280;70392;51.144;17.050;2023-07-31T11:08:43;99991.14;;;22.71;52.45
80934;BME280;70392;51.144;17.050;2023-07-31T11:11:12;99978.60;;;22.44;52.35
80934;BME280;70392;51.144;17.050;2023-07-31T11:13:39;99988.30;;;22.74;53.05
80934;BME280;70392;51.144;17.050;2023-07-31T11:15:57;99983.73;;;22.93;52.98
80934;BME280;70392;51.144;17.050;2023-07-31T11:18:16;99986.84;;;22.94;51.15
80934;BME280;70392;51.144;17.050;2023-07-31T11:20:37;99970.57;;;23.26;51.09
80934;BME280;70392;51.144;17.050;2023-07-31T11:22:59;99972.87;;;23.63;50.68
80934;BME280;70392;51.144;17.050;2023-07-31T11:25:19;99963.89;;;24.16;49.97
80934;BME280;70392;51.144;17.050;2023-07-31T11:27:43;99957.38;;;24.71;50.14
80934;BME280;70392;51.144;17.050;2023-07-31T11:30:03;99965.66;;;25.09;47.76
80934;BME280;70392;51.144;17.050;2023-07-31T11:32:20;99952.55;;;24.65;46.59
80934;BME280;70392;51.144;17.050;2023-07-31T11:34:53;99942.03;;;25.15;47.02
80934;BME280;70392;51.144;17.050;2023-07-31T11:37:10;99950.23;;;25.59;46.54
80934;BME280;70392;51.144;17.050;2023-07-31T11:39:27;99947.98;;;25.60;46.51
80934;BME280;70392;51.144;17.050;2023-07-31T11:41:46;99936.73;;;25.58;45.92
80934;BME280;70392;51.144;17.050;2023-07-31T11:44:02;99931.13;;;26.04;44.78
80934;BME280;70392;51.144;17.050;2023-07-31T11:46:24;99933.31;;;26.04;44.23
80934;BME280;70392;51.144;17.050;2023-07-31T11:48:40;99928.73;;;26.04;44.28
80934;BME280;70392;51.144;17.050;2023-07-31T11:50:58;99926.61;;;26.03;45.03
80934;BME280;70392;51.144;17.050;2023-07-31T11:53:28;99929.28;;;26.17;44.11
80934;BME280;70392;51.144;17.050;2023-07-31T11:55:46;99920.91;;;26.15;43.24
80934;BME280;70392;51.144;17.050;2023-07-31T11:58:04;99921.42;;;26.55;42.74
80934;BME280;70392;51.144;17.050;2023-07-31T12:00:29;99927.02;;;26.99;42.56
80934;BME280;70392;51.144;17.050;2023-07-31T12:02:48;99916.05;;;27.26;41.73
80934;BME280;70392;51.144;17.050;2023-07-31T12:05:11;99919.00;;;27.51;40.99
80934;BME280;70392;51.144;17.050;2023-07-31T12:10:26;99915.05;;;28.12;39.34
80934;BME280;70392;51.144;17.050;2023-07-31T12:13:04;99903.25;;;27.87;39.81
80934;BME280;70392;51.144;17.050;2023-07-31T12:16:04;99901.34;;;27.38;40.84
80934;BME280;70392;51.144;17.050;2023-07-31T12:18:22;99894.46;;;27.77;39.85